Belmont, ME

5:16 PM EST on November 25, 2014 (GMT -0500)
Hope, Maine: Church Street Apple Orchard | Change Station
CLOSE
Current Station
Personal Weather Station
Location: Hope, ME
Elevation: 420 ft
Nearby Weather Stations
Active Advisory: Winter Storm Warning

Elev 420 ft 44.27 °N, 69.15 °W | Updated 1 minute ago

Clear
Clear
51.1 °F
Feels Like 51.1 °F
N
3.0
Wind Variable Wind from SE
Gusts 4.0 mph

Today
High -- | Low -- °F
--% Chance of Precip.
Yesterday
High -- | Low -- °F
Precip. -- in
6:45 AM 4:01 PM
Waxing Crescent, 14% visible
Pressure 29.83 in
Visibility 10.0 miles
Clouds Clear
Dew Point 34 °F
Humidity 53%
Rainfall 0.00 in
Snow Depth Not available.
UV 0 out of 12
Pollen .10 out of 12
Air Quality Not available.
Flu Activity Not available.
METAR KRKD 252155Z AUTO 23011KT 10SM CLR 12/03 A2983 RMK AO1

More Conditions Fewer Conditions

Pressure 29.83 in
Visibility 10.0 miles
Clouds Clear
Dew Point 34 °F
Humidity 53%
Rainfall 0.00 in
Snow Depth Not available.
UV 0 out of 12
Pollen .10 out of 12
Air Quality Not available.
Flu Activity Not available.
METAR KRKD 252155Z AUTO 23011KT 10SM CLR 12/03 A2983 RMK AO1

More Conditions Fewer Conditions

10-Day Weather Forecast

Almanac

Astronomy

Nov. 25, 2014 Rise Set
Actual Time
Civil Twilight
Nautical Twilight
Astronomical Twilight
Moon
Length of Visible Light
Length of Day
Tomorrow will be .
, % of the Moon is Illuminated

Today's Extremes

State Highs State Lows

Community

WunderPhotos

Upload Photos

1,773,608 photos uploaded!

WunderBlogs® & News

Nearby

Air Quality

  Air Quality AQ Index Pollutant
Not available.

Snow Depth

Station Depth Elevation

Earthquake Activity

City Distance Mag. Time & Date
Minimum magnitude displayed is 2.5.

Coastal Water Temperatures

Place Temperature

Nearby Weather Stations